sensor_id;sensor_type;location;lat;lon;timestamp;temperature;humidity
6293;DHT22;3179;54.350;10.102;2022-07-24T00:01:57;16.20;95.70
6293;DHT22;3179;54.350;10.102;2022-07-24T00:04:24;16.20;95.70
6293;DHT22;3179;54.350;10.102;2022-07-24T00:06:51;16.20;95.70
6293;DHT22;3179;54.350;10.102;2022-07-24T00:09:18;16.20;95.70
6293;DHT22;3179;54.350;10.102;2022-07-24T00:11:45;16.10;95.70
6293;DHT22;3179;54.350;10.102;2022-07-24T00:14:14;16.10;95.80
6293;DHT22;3179;54.350;10.102;2022-07-24T00:16:40;16.10;95.80
6293;DHT22;3179;54.350;10.102;2022-07-24T00:19:07;16.10;95.80
6293;DHT22;3179;54.350;10.102;2022-07-24T00:21:34;16.10;95.90
6293;DHT22;3179;54.350;10.102;2022-07-24T00:24:01;16.10;95.80
6293;DHT22;3179;54.350;10.102;2022-07-24T00:26:28;16.00;95.80
6293;DHT22;3179;54.350;10.102;2022-07-24T00:28:55;16.00;95.90
6293;DHT22;3179;54.350;10.102;2022-07-24T00:31:23;16.00;95.90
6293;DHT22;3179;54.350;10.102;2022-07-24T00:33:50;16.00;96.00
6293;DHT22;3179;54.350;10.102;2022-07-24T00:36:17;16.00;96.10
6293;DHT22;3179;54.350;10.102;2022-07-24T00:38:44;16.00;96.20
6293;DHT22;3179;54.350;10.102;2022-07-24T00:41:11;16.00;96.20
6293;DHT22;3179;54.350;10.102;2022-07-24T00:44:04;16.00;96.30
6293;DHT22;3179;54.350;10.102;2022-07-24T00:46:34;16.00;96.70
6293;DHT22;3179;54.350;10.102;2022-07-24T00:49:02;16.00;96.50
6293;DHT22;3179;54.350;10.102;2022-07-24T00:51:29;15.90;96.50
6293;DHT22;3179;54.350;10.102;2022-07-24T00:53:56;15.90;96.50
6293;DHT22;3179;54.350;10.102;2022-07-24T00:56:23;15.90;96.50
6293;DHT22;3179;54.350;10.102;2022-07-24T00:58:51;15.90;96.60
6293;DHT22;3179;54.350;10.102;2022-07-24T01:01:18;15.90;96.60
6293;DHT22;3179;54.350;10.102;2022-07-24T01:03:46;15.90;96.60
6293;DHT22;3179;54.350;10.102;2022-07-24T01:06:13;15.90;96.70
6293;DHT22;3179;54.350;10.102;2022-07-24T01:08:41;15.90;96.80
6293;DHT22;3179;54.350;10.102;2022-07-24T01:11:10;15.90;96.90
6293;DHT22;3179;54.350;10.102;2022-07-24T01:13:38;15.90;96.90
6293;DHT22;3179;54.350;10.102;2022-07-24T01:16:08;15.80;96.90
6293;DHT22;3179;54.350;10.102;2022-07-24T01:18:35;15.80;96.90
6293;DHT22;3179;54.350;10.102;2022-07-24T01:21:04;15.80;96.90
6293;DHT22;3179;54.350;10.102;2022-07-24T01:23:32;15.80;96.90
6293;DHT22;3179;54.350;10.102;2022-07-24T01:25:59;15.80;96.90
6293;DHT22;3179;54.350;10.102;2022-07-24T01:28:26;15.80;97.00
6293;DHT22;3179;54.350;10.102;2022-07-24T01:30:55;15.80;97.00
6293;DHT22;3179;54.350;10.102;2022-07-24T01:33:22;15.70;97.00
6293;DHT22;3179;54.350;10.102;2022-07-24T01:35:50;15.70;97.10
6293;DHT22;3179;54.350;10.102;2022-07-24T01:38:19;15.70;97.10
6293;DHT22;3179;54.350;10.102;2022-07-24T01:40:46;15.70;97.20
6293;DHT22;3179;54.350;10.102;2022-07-24T01:43:13;15.70;97.20
6293;DHT22;3179;54.350;10.102;2022-07-24T01:45:39;15.70;97.20
6293;DHT22;3179;54.350;10.102;2022-07-24T01:48:06;15.70;97.30
6293;DHT22;3179;54.350;10.102;2022-07-24T01:50:33;15.70;97.30
6293;DHT22;3179;54.350;10.102;2022-07-24T01:53:00;15.70;97.40
6293;DHT22;3179;54.350;10.102;2022-07-24T01:55:30;15.70;97.40
6293;DHT22;3179;54.350;10.102;2022-07-24T01:57:57;15.70;97.50
6293;DHT22;3179;54.350;10.102;2022-07-24T02:00:24;15.70;97.40
6293;DHT22;3179;54.350;10.102;2022-07-24T02:02:51;15.80;97.50
6293;DHT22;3179;54.350;10.102;2022-07-24T02:05:18;15.70;97.50
6293;DHT22;3179;54.350;10.102;2022-07-24T02:07:54;15.70;97.50
6293;DHT22;3179;54.350;10.102;2022-07-24T02:10:22;15.70;97.60
6293;DHT22;3179;54.350;10.102;2022-07-24T02:12:50;15.70;97.60
6293;DHT22;3179;54.350;10.102;2022-07-24T02:15:17;15.80;97.70
6293;DHT22;3179;54.350;10.102;2022-07-24T02:17:45;15.80;97.60
6293;DHT22;3179;54.350;10.102;2022-07-24T02:20:12;15.80;97.60
6293;DHT22;3179;54.350;10.102;2022-07-24T02:22:39;15.80;97.70
6293;DHT22;3179;54.350;10.102;2022-07-24T02:25:07;15.80;97.80
6293;DHT22;3179;54.350;10.102;2022-07-24T02:27:34;15.80;97.80
6293;DHT22;3179;54.350;10.102;2022-07-24T02:30:03;15.70;97.70
6293;DHT22;3179;54.350;10.102;2022-07-24T02:32:31;15.70;97.80
6293;DHT22;3179;54.350;10.102;2022-07-24T02:34:58;15.70;97.80
6293;DHT22;3179;54.350;10.102;2022-07-24T02:37:24;15.70;97.80
6293;DHT22;3179;54.350;10.102;2022-07-24T02:39:51;15.70;97.90
6293;DHT22;3179;54.350;10.102;2022-07-24T02:42:18;15.60;97.80
6293;DHT22;3179;54.350;10.102;2022-07-24T02:44:45;15.60;97.90
6293;DHT22;3179;54.350;10.102;2022-07-24T02:47:13;15.60;97.90
6293;DHT22;3179;54.350;10.102;2022-07-24T02:49:40;15.60;97.90
6293;DHT22;3179;54.350;10.102;2022-07-24T02:52:06;15.60;97.90
6293;DHT22;3179;54.350;10.102;2022-07-24T02:54:33;15.60;97.90
6293;DHT22;3179;54.350;10.102;2022-07-24T02:57:00;15.60;97.90
6293;DHT22;3179;54.350;10.102;2022-07-24T02:59:27;15.60;98.00
6293;DHT22;3179;54.350;10.102;2022-07-24T03:01:53;15.60;98.00
6293;DHT22;3179;54.350;10.102;2022-07-24T03:04:22;15.60;98.00
6293;DHT22;3179;54.350;10.102;2022-07-24T03:06:48;15.60;98.10
6293;DHT22;3179;54.350;10.102;2022-07-24T03:09:15;15.60;98.10
6293;DHT22;3179;54.350;10.102;2022-07-24T03:11:42;15.60;98.10
6293;DHT22;3179;54.350;10.102;2022-07-24T03:14:09;15.60;98.10
6293;DHT22;3179;54.350;10.102;2022-07-24T03:16:35;15.60;98.20
6293;DHT22;3179;54.350;10.102;2022-07-24T03:19:03;15.60;98.20
6293;DHT22;3179;54.350;10.102;2022-07-24T03:21:31;15.60;98.20
6293;DHT22;3179;54.350;10.102;2022-07-24T03:23:57;15.50;98.20
6293;DHT22;3179;54.350;10.102;2022-07-24T03:26:24;15.50;98.20
6293;DHT22;3179;54.350;10.102;2022-07-24T03:28:51;15.60;98.30
6293;DHT22;3179;54.350;10.102;2022-07-24T03:31:18;15.50;98.20
6293;DHT22;3179;54.350;10.102;2022-07-24T03:33:44;15.50;98.30
6293;DHT22;3179;54.350;10.102;2022-07-24T03:36:11;15.50;98.60
6293;DHT22;3179;54.350;10.102;2022-07-24T03:38:39;15.50;98.40
6293;DHT22;3179;54.350;10.102;2022-07-24T03:41:06;15.50;98.40
6293;DHT22;3179;54.350;10.102;2022-07-24T03:43:33;15.50;98.50
6293;DHT22;3179;54.350;10.102;2022-07-24T03:46:00;15.50;98.60
6293;DHT22;3179;54.350;10.102;2022-07-24T03:48:27;15.40;98.60
6293;DHT22;3179;54.350;10.102;2022-07-24T03:50:53;15.40;98.60
6293;DHT22;3179;54.350;10.102;2022-07-24T03:53:20;15.40;98.60
6293;DHT22;3179;54.350;10.102;2022-07-24T03:55:48;15.40;98.60
6293;DHT22;3179;54.350;10.102;2022-07-24T03:58:15;15.40;98.70
6293;DHT22;3179;54.350;10.102;2022-07-24T04:00:42;15.40;98.70
6293;DHT22;3179;54.350;10.102;2022-07-24T04:03:09;15.40;98.70
6293;DHT22;3179;54.350;10.102;2022-07-24T04:05:35;15.40;98.80
6293;DHT22;3179;54.350;10.102;2022-07-24T04:08:02;15.40;98.80
6293;DHT22;3179;54.350;10.102;2022-07-24T04:10:29;15.40;98.80
6293;DHT22;3179;54.350;10.102;2022-07-24T04:12:57;15.40;98.80
6293;DHT22;3179;54.350;10.102;2022-07-24T04:15:25;15.40;98.90
6293;DHT22;3179;54.350;10.102;2022-07-24T04:17:52;15.50;99.00
6293;DHT22;3179;54.350;10.102;2022-07-24T04:20:19;15.50;99.00
6293;DHT22;3179;54.350;10.102;2022-07-24T04:22:46;15.50;98.90
6293;DHT22;3179;54.350;10.102;2022-07-24T04:25:13;15.60;99.00
6293;DHT22;3179;54.350;10.102;2022-07-24T04:27:40;15.60;99.10
6293;DHT22;3179;54.350;10.102;2022-07-24T04:30:10;15.60;99.10
6293;DHT22;3179;54.350;10.102;2022-07-24T04:32:37;15.60;99.10
6293;DHT22;3179;54.350;10.102;2022-07-24T04:35:05;15.60;99.00
6293;DHT22;3179;54.350;10.102;2022-07-24T04:37:32;15.60;99.10
6293;DHT22;3179;54.350;10.102;2022-07-24T04:39:59;15.70;99.20
6293;DHT22;3179;54.350;10.102;2022-07-24T04:42:26;15.70;99.20
6293;DHT22;3179;54.350;10.102;2022-07-24T04:44:52;15.70;99.30
6293;DHT22;3179;54.350;10.102;2022-07-24T04:47:21;15.70;99.30
6293;DHT22;3179;54.350;10.102;2022-07-24T04:49:47;15.70;99.30
6293;DHT22;3179;54.350;10.102;2022-07-24T04:52:14;15.70;99.40
6293;DHT22;3179;54.350;10.102;2022-07-24T04:54:41;15.70;99.40
6293;DHT22;3179;54.350;10.102;2022-07-24T04:57:08;15.70;99.40
6293;DHT22;3179;54.350;10.102;2022-07-24T04:59:34;15.70;99.50
6293;DHT22;3179;54.350;10.102;2022-07-24T05:02:01;15.80;99.60
6293;DHT22;3179;54.350;10.102;2022-07-24T05:04:29;15.80;99.60
6293;DHT22;3179;54.350;10.102;2022-07-24T05:06:56;15.80;99.60
6293;DHT22;3179;54.350;10.102;2022-07-24T05:09:23;15.80;99.70
6293;DHT22;3179;54.350;10.102;2022-07-24T05:11:50;15.80;99.60
6293;DHT22;3179;54.350;10.102;2022-07-24T05:14:16;15.80;99.70
6293;DHT22;3179;54.350;10.102;2022-07-24T05:16:43;15.90;99.80
6293;DHT22;3179;54.350;10.102;2022-07-24T05:19:10;15.80;99.70
6293;DHT22;3179;54.350;10.102;2022-07-24T05:21:38;15.80;99.60
6293;DHT22;3179;54.350;10.102;2022-07-24T05:24:05;15.90;99.70
6293;DHT22;3179;54.350;10.102;2022-07-24T05:26:32;15.90;99.70
6293;DHT22;3179;54.350;10.102;2022-07-24T05:29:00;15.90;99.70
6293;DHT22;3179;54.350;10.102;2022-07-24T05:31:27;16.00;99.60
6293;DHT22;3179;54.350;10.102;2022-07-24T05:33:54;16.00;99.60
6293;DHT22;3179;54.350;10.102;2022-07-24T05:36:21;16.00;99.80
6293;DHT22;3179;54.350;10.102;2022-07-24T05:38:49;16.00;99.70
6293;DHT22;3179;54.350;10.102;2022-07-24T05:41:16;16.00;99.70
6293;DHT22;3179;54.350;10.102;2022-07-24T05:43:42;16.10;99.90
6293;DHT22;3179;54.350;10.102;2022-07-24T05:46:09;16.10;99.90
6293;DHT22;3179;54.350;10.102;2022-07-24T05:48:36;16.10;99.90
6293;DHT22;3179;54.350;10.102;2022-07-24T05:51:03;16.20;99.90
6293;DHT22;3179;54.350;10.102;2022-07-24T05:53:30;16.20;99.90
6293;DHT22;3179;54.350;10.102;2022-07-24T05:55:58;16.20;99.90
6293;DHT22;3179;54.350;10.102;2022-07-24T05:58:25;16.20;99.90
6293;DHT22;3179;54.350;10.102;2022-07-24T06:00:51;16.20;99.90
6293;DHT22;3179;54.350;10.102;2022-07-24T06:03:18;16.20;99.90
6293;DHT22;3179;54.350;10.102;2022-07-24T06:05:45;16.30;99.90
6293;DHT22;3179;54.350;10.102;2022-07-24T06:08:12;16.30;99.80
6293;DHT22;3179;54.350;10.102;2022-07-24T06:10:38;16.30;99.80
6293;DHT22;3179;54.350;10.102;2022-07-24T06:13:07;16.40;99.80
6293;DHT22;3179;54.350;10.102;2022-07-24T06:15:33;16.40;99.70
6293;DHT22;3179;54.350;10.102;2022-07-24T06:18:00;16.40;99.90
6293;DHT22;3179;54.350;10.102;2022-07-24T06:20:27;16.50;99.70
6293;DHT22;3179;54.350;10.102;2022-07-24T06:22:54;16.50;99.60
6293;DHT22;3179;54.350;10.102;2022-07-24T06:25:22;16.50;99.70
6293;DHT22;3179;54.350;10.102;2022-07-24T06:27:50;16.50;99.60
6293;DHT22;3179;54.350;10.102;2022-07-24T06:30:22;16.60;99.50
6293;DHT22;3179;54.350;10.102;2022-07-24T06:32:49;16.60;99.40
6293;DHT22;3179;54.350;10.102;2022-07-24T06:35:16;16.60;99.40
6293;DHT22;3179;54.350;10.102;2022-07-24T06:37:43;16.70;99.40
6293;DHT22;3179;54.350;10.102;2022-07-24T06:40:11;16.70;99.30
6293;DHT22;3179;54.350;10.102;2022-07-24T06:42:38;16.80;99.30
6293;DHT22;3179;54.350;10.102;2022-07-24T06:45:06;16.80;99.20
6293;DHT22;3179;54.350;10.102;2022-07-24T06:47:34;16.80;99.10
6293;DHT22;3179;54.350;10.102;2022-07-24T06:50:01;16.80;99.10
6293;DHT22;3179;54.350;10.102;2022-07-24T06:52:28;16.90;99.10
6293;DHT22;3179;54.350;10.102;2022-07-24T06:54:55;16.90;99.00
6293;DHT22;3179;54.350;10.102;2022-07-24T06:57:22;16.90;98.90
6293;DHT22;3179;54.350;10.102;2022-07-24T06:59:51;16.90;98.80
6293;DHT22;3179;54.350;10.102;2022-07-24T07:02:18;17.00;99.10
6293;DHT22;3179;54.350;10.102;2022-07-24T07:04:49;17.00;98.70
6293;DHT22;3179;54.350;10.102;2022-07-24T07:07:16;17.10;98.90
6293;DHT22;3179;54.350;10.102;2022-07-24T07:09:43;17.20;99.00
6293;DHT22;3179;54.350;10.102;2022-07-24T07:12:10;17.20;98.90
6293;DHT22;3179;54.350;10.102;2022-07-24T07:14:37;17.30;98.90
6293;DHT22;3179;54.350;10.102;2022-07-24T07:17:04;17.40;98.90
6293;DHT22;3179;54.350;10.102;2022-07-24T07:19:31;17.40;98.90
6293;DHT22;3179;54.350;10.102;2022-07-24T07:21:59;17.50;98.90
6293;DHT22;3179;54.350;10.102;2022-07-24T07:24:26;17.60;98.90
6293;DHT22;3179;54.350;10.102;2022-07-24T07:26:53;17.60;98.80
6293;DHT22;3179;54.350;10.102;2022-07-24T07:29:19;17.70;98.70
6293;DHT22;3179;54.350;10.102;2022-07-24T07:31:46;17.70;98.70
6293;DHT22;3179;54.350;10.102;2022-07-24T07:34:13;17.80;98.60
6293;DHT22;3179;54.350;10.102;2022-07-24T07:36:40;17.90;98.50
6293;DHT22;3179;54.350;10.102;2022-07-24T07:39:08;17.90;98.60
6293;DHT22;3179;54.350;10.102;2022-07-24T07:41:36;18.00;98.70
6293;DHT22;3179;54.350;10.102;2022-07-24T07:44:03;18.00;98.60
6293;DHT22;3179;54.350;10.102;2022-07-24T07:46:30;18.00;98.50
6293;DHT22;3179;54.350;10.102;2022-07-24T07:48:57;18.10;98.70
6293;DHT22;3179;54.350;10.102;2022-07-24T07:51:24;18.20;98.60
6293;DHT22;3179;54.350;10.102;2022-07-24T07:53:52;18.20;98.60
6293;DHT22;3179;54.350;10.102;2022-07-24T07:56:20;18.30;98.50
6293;DHT22;3179;54.350;10.102;2022-07-24T07:58:47;18.30;98.40
6293;DHT22;3179;54.350;10.102;2022-07-24T08:01:14;18.30;98.60
6293;DHT22;3179;54.350;10.102;2022-07-24T08:03:43;18.40;98.70
6293;DHT22;3179;54.350;10.102;2022-07-24T08:06:10;18.40;98.70
6293;DHT22;3179;54.350;10.102;2022-07-24T08:08:36;18.50;98.80
6293;DHT22;3179;54.350;10.102;2022-07-24T08:11:04;18.60;98.70
6293;DHT22;3179;54.350;10.102;2022-07-24T08:13:32;18.70;98.80
6293;DHT22;3179;54.350;10.102;2022-07-24T08:15:59;18.70;98.80
6293;DHT22;3179;54.350;10.102;2022-07-24T08:18:26;18.80;98.70
6293;DHT22;3179;54.350;10.102;2022-07-24T08:20:53;18.90;98.70
6293;DHT22;3179;54.350;10.102;2022-07-24T08:23:19;19.00;98.70
6293;DHT22;3179;54.350;10.102;2022-07-24T08:25:46;19.10;98.70
6293;DHT22;3179;54.350;10.102;2022-07-24T08:28:13;19.10;98.60
6293;DHT22;3179;54.350;10.102;2022-07-24T08:30:41;19.10;98.50
6293;DHT22;3179;54.350;10.102;2022-07-24T08:33:08;19.10;98.50
6293;DHT22;3179;54.350;10.102;2022-07-24T08:35:35;19.20;98.50
6293;DHT22;3179;54.350;10.102;2022-07-24T08:38:02;19.20;98.50
6293;DHT22;3179;54.350;10.102;2022-07-24T08:40:34;19.20;98.50
6293;DHT22;3179;54.350;10.102;2022-07-24T08:43:03;19.30;98.50
6293;DHT22;3179;54.350;10.102;2022-07-24T08:45:34;19.30;98.40
6293;DHT22;3179;54.350;10.102;2022-07-24T08:48:05;19.40;98.50
6293;DHT22;3179;54.350;10.102;2022-07-24T08:50:34;19.40;98.50
6293;DHT22;3179;54.350;10.102;2022-07-24T08:53:02;19.50;98.40
6293;DHT22;3179;54.350;10.102;2022-07-24T08:55:32;19.50;98.40
6293;DHT22;3179;54.350;10.102;2022-07-24T08:58:00;19.60;98.50
6293;DHT22;3179;54.350;10.102;2022-07-24T09:00:29;19.60;98.40
6293;DHT22;3179;54.350;10.102;2022-07-24T09:02:57;19.70;98.40
6293;DHT22;3179;54.350;10.102;2022-07-24T09:05:25;19.80;98.50
6293;DHT22;3179;54.350;10.102;2022-07-24T09:08:08;19.90;98.50
6293;DHT22;3179;54.350;10.102;2022-07-24T09:10:36;19.90;98.30
6293;DHT22;3179;54.350;10.102;2022-07-24T09:13:12;20.00;98.30
6293;DHT22;3179;54.350;10.102;2022-07-24T09:15:45;20.10;98.20
6293;DHT22;3179;54.350;10.102;2022-07-24T09:18:29;20.20;98.10
6293;DHT22;3179;54.350;10.102;2022-07-24T09:20:59;20.20;97.90
6293;DHT22;3179;54.350;10.102;2022-07-24T09:23:38;20.30;98.00
6293;DHT22;3179;54.350;10.102;2022-07-24T09:26:05;20.40;97.90
6293;DHT22;3179;54.350;10.102;2022-07-24T09:28:46;20.40;97.90
6293;DHT22;3179;54.350;10.102;2022-07-24T09:31:14;20.50;97.50
6293;DHT22;3179;54.350;10.102;2022-07-24T09:33:41;20.60;97.60
6293;DHT22;3179;54.350;10.102;2022-07-24T09:36:14;20.60;97.60
6293;DHT22;3179;54.350;10.102;2022-07-24T09:38:48;20.70;97.50
6293;DHT22;3179;54.350;10.102;2022-07-24T09:41:22;20.80;97.20
6293;DHT22;3179;54.350;10.102;2022-07-24T09:44:00;20.90;97.20
6293;DHT22;3179;54.350;10.102;2022-07-24T09:46:27;21.00;97.10
6293;DHT22;3179;54.350;10.102;2022-07-24T09:48:55;21.00;97.30
6293;DHT22;3179;54.350;10.102;2022-07-24T09:51:25;21.10;97.10
6293;DHT22;3179;54.350;10.102;2022-07-24T09:53:54;21.20;97.10
6293;DHT22;3179;54.350;10.102;2022-07-24T09:56:22;21.30;97.00
6293;DHT22;3179;54.350;10.102;2022-07-24T09:58:50;21.40;97.30
6293;DHT22;3179;54.350;10.102;2022-07-24T10:01:19;21.50;97.00
6293;DHT22;3179;54.350;10.102;2022-07-24T10:03:48;21.60;97.00
6293;DHT22;3179;54.350;10.102;2022-07-24T10:06:17;21.70;97.00
6293;DHT22;3179;54.350;10.102;2022-07-24T10:08:47;21.70;97.00
6293;DHT22;3179;54.350;10.102;2022-07-24T10:11:14;21.80;96.90
6293;DHT22;3179;54.350;10.102;2022-07-24T10:13:42;21.80;97.00
6293;DHT22;3179;54.350;10.102;2022-07-24T10:16:25;21.90;96.90
6293;DHT22;3179;54.350;10.102;2022-07-24T10:18:54;21.90;96.40
6293;DHT22;3179;54.350;10.102;2022-07-24T10:21:22;21.90;96.70
6293;DHT22;3179;54.350;10.102;2022-07-24T10:27:03;22.10;96.20
6293;DHT22;3179;54.350;10.102;2022-07-24T10:29:33;22.10;96.50
6293;DHT22;3179;54.350;10.102;2022-07-24T10:32:01;22.20;96.60
6293;DHT22;3179;54.350;10.102;2022-07-24T10:34:33;22.20;96.50
6293;DHT22;3179;54.350;10.102;2022-07-24T10:37:15;22.30;96.40
6293;DHT22;3179;54.350;10.102;2022-07-24T10:39:54;22.30;96.40
6293;DHT22;3179;54.350;10.102;2022-07-24T10:42:22;22.50;96.50
6293;DHT22;3179;54.350;10.102;2022-07-24T10:45:14;22.60;96.60
6293;DHT22;3179;54.350;10.102;2022-07-24T10:47:41;22.70;96.40
6293;DHT22;3179;54.350;10.102;2022-07-24T10:50:08;22.80;96.60
6293;DHT22;3179;54.350;10.102;2022-07-24T10:52:35;23.00;96.50
6293;DHT22;3179;54.350;10.102;2022-07-24T10:55:23;23.00;96.30
6293;DHT22;3179;54.350;10.102;2022-07-24T10:57:57;23.00;95.70
6293;DHT22;3179;54.350;10.102;2022-07-24T11:00:26;23.10;96.10
6293;DHT22;3179;54.350;10.102;2022-07-24T11:03:01;23.20;96.20
6293;DHT22;3179;54.350;10.102;2022-07-24T11:05:32;23.40;96.00
6293;DHT22;3179;54.350;10.102;2022-07-24T11:08:36;23.40;95.90
6293;DHT22;3179;54.350;10.102;2022-07-24T11:11:11;23.60;95.00
6293;DHT22;3179;54.350;10.102;2022-07-24T11:13:41;23.60;95.80
6293;DHT22;3179;54.350;10.102;2022-07-24T11:16:32;23.80;96.00
6293;DHT22;3179;54.350;10.102;2022-07-24T11:19:25;23.90;95.20
6293;DHT22;3179;54.350;10.102;2022-07-24T11:22:07;24.00;95.10
6293;DHT22;3179;54.350;10.102;2022-07-24T11:24:34;24.20;94.90
6293;DHT22;3179;54.350;10.102;2022-07-24T11:27:06;24.20;95.60
6293;DHT22;3179;54.350;10.102;2022-07-24T11:29:36;24.20;95.40
6293;DHT22;3179;54.350;10.102;2022-07-24T11:32:04;24.20;95.40
6293;DHT22;3179;54.350;10.102;2022-07-24T11:34:34;24.30;95.40
6293;DHT22;3179;54.350;10.102;2022-07-24T11:37:02;24.40;95.30
6293;DHT22;3179;54.350;10.102;2022-07-24T11:39:33;24.50;95.60
6293;DHT22;3179;54.350;10.102;2022-07-24T11:42:02;24.50;95.20
6293;DHT22;3179;54.350;10.102;2022-07-24T11:44:31;24.60;95.00
6293;DHT22;3179;54.350;10.102;2022-07-24T11:47:05;24.70;94.80
6293;DHT22;3179;54.350;10.102;2022-07-24T11:49:39;24.80;94.70
6293;DHT22;3179;54.350;10.102;2022-07-24T11:52:06;24.90;94.50
6293;DHT22;3179;54.350;10.102;2022-07-24T11:54:33;24.90;94.80
6293;DHT22;3179;54.350;10.102;2022-07-24T11:57:00;25.10;94.70
6293;DHT22;3179;54.350;10.102;2022-07-24T11:59:28;25.20;94.40
6293;DHT22;3179;54.350;10.102;2022-07-24T12:01:56;25.30;94.30
6293;DHT22;3179;54.350;10.102;2022-07-24T12:04:30;25.40;94.30
6293;DHT22;3179;54.350;10.102;2022-07-24T12:06:57;25.40;93.90
6293;DHT22;3179;54.350;10.102;2022-07-24T12:09:24;25.50;93.80
6293;DHT22;3179;54.350;10.102;2022-07-24T12:11:50;25.50;93.80
6293;DHT22;3179;54.350;10.102;2022-07-24T12:14:19;25.60;93.90
6293;DHT22;3179;54.350;10.102;2022-07-24T12:16:52;25.60;93.80
6293;DHT22;3179;54.350;10.102;2022-07-24T12:19:22;25.80;93.40
6293;DHT22;3179;54.350;10.102;2022-07-24T12:21:52;25.80;93.90
6293;DHT22;3179;54.350;10.102;2022-07-24T12:24:20;25.80;93.60
6293;DHT22;3179;54.350;10.102;2022-07-24T12:26:51;25.80;93.60
6293;DHT22;3179;54.350;10.102;2022-07-24T12:29:19;25.80;93.40
6293;DHT22;3179;54.350;10.102;2022-07-24T12:31:46;25.70;93.80
6293;DHT22;3179;54.350;10.102;2022-07-24T12:34:13;25.60;93.90
6293;DHT22;3179;54.350;10.102;2022-07-24T12:36:40;25.50;93.60
6293;DHT22;3179;54.350;10.102;2022-07-24T12:39:08;25.60;93.60
6293;DHT22;3179;54.350;10.102;2022-07-24T12:41:45;25.70;93.70
6293;DHT22;3179;54.350;10.102;2022-07-24T12:44:14;25.70;93.10
6293;DHT22;3179;54.350;10.102;2022-07-24T12:46:44;25.70;93.50
6293;DHT22;3179;54.350;10.102;2022-07-24T12:49:12;25.60;93.50
6293;DHT22;3179;54.350;10.102;2022-07-24T12:51:50;25.60;93.60
6293;DHT22;3179;54.350;10.102;2022-07-24T12:54:21;25.70;92.90
6293;DHT22;3179;54.350;10.102;2022-07-24T12:56:49;25.70;93.60
6293;DHT22;3179;54.350;10.102;2022-07-24T12:59:24;25.70;93.50
6293;DHT22;3179;54.350;10.102;2022-07-24T13:01:59;25.70;93.20
6293;DHT22;3179;54.350;10.102;2022-07-24T13:04:29;25.70;93.40
6293;DHT22;3179;54.350;10.102;2022-07-24T13:06:57;25.70;93.50
6293;DHT22;3179;54.350;10.102;2022-07-24T13:09:27;25.80;93.40
6293;DHT22;3179;54.350;10.102;2022-07-24T13:12:07;25.80;93.30
6293;DHT22;3179;54.350;10.102;2022-07-24T13:14:54;25.80;92.70
6293;DHT22;3179;54.350;10.102;2022-07-24T13:17:21;25.70;93.10
6293;DHT22;3179;54.350;10.102;2022-07-24T13:19:50;25.60;93.00
6293;DHT22;3179;54.350;10.102;2022-07-24T13:22:19;25.60;92.90
6293;DHT22;3179;54.350;10.102;2022-07-24T13:24:48;25.60;93.00
6293;DHT22;3179;54.350;10.102;2022-07-24T13:27:15;25.50;93.00
6293;DHT22;3179;54.350;10.102;2022-07-24T13:29:43;25.60;93.20
6293;DHT22;3179;54.350;10.102;2022-07-24T13:32:10;25.60;93.10
6293;DHT22;3179;54.350;10.102;2022-07-24T13:34:37;25.60;93.10
6293;DHT22;3179;54.350;10.102;2022-07-24T13:37:04;25.60;93.10
6293;DHT22;3179;54.350;10.102;2022-07-24T13:39:31;25.70;92.90
6293;DHT22;3179;54.350;10.102;2022-07-24T13:41:59;25.70;93.00
6293;DHT22;3179;54.350;10.102;2022-07-24T13:44:26;25.80;93.10
6293;DHT22;3179;54.350;10.102;2022-07-24T13:46:56;25.90;93.10
6293;DHT22;3179;54.350;10.102;2022-07-24T13:49:24;25.90;92.90
6293;DHT22;3179;54.350;10.102;2022-07-24T13:51:51;25.80;92.70
6293;DHT22;3179;54.350;10.102;2022-07-24T13:54:18;25.80;92.80
6293;DHT22;3179;54.350;10.102;2022-07-24T13:56:45;25.80;92.80
6293;DHT22;3179;54.350;10.102;2022-07-24T13:59:13;25.70;92.80
6293;DHT22;3179;54.350;10.102;2022-07-24T14:01:40;25.70;92.80
6293;DHT22;3179;54.350;10.102;2022-07-24T14:04:07;25.70;92.80
6293;DHT22;3179;54.350;10.102;2022-07-24T14:06:35;25.70;92.90
6293;DHT22;3179;54.350;10.102;2022-07-24T14:09:02;25.80;93.00
6293;DHT22;3179;54.350;10.102;2022-07-24T14:11:29;26.00;93.10
6293;DHT22;3179;54.350;10.102;2022-07-24T14:13:56;26.20;93.30
6293;DHT22;3179;54.350;10.102;2022-07-24T14:16:24;26.30;93.20
6293;DHT22;3179;54.350;10.102;2022-07-24T14:18:51;26.30;93.00
6293;DHT22;3179;54.350;10.102;2022-07-24T14:21:18;26.30;92.80
6293;DHT22;3179;54.350;10.102;2022-07-24T14:23:45;26.30;92.80
6293;DHT22;3179;54.350;10.102;2022-07-24T14:26:12;26.30;92.70
6293;DHT22;3179;54.350;10.102;2022-07-24T14:28:39;26.30;92.90
6293;DHT22;3179;54.350;10.102;2022-07-24T14:31:05;26.30;92.80
6293;DHT22;3179;54.350;10.102;2022-07-24T14:33:34;26.20;92.70
6293;DHT22;3179;54.350;10.102;2022-07-24T14:36:01;26.20;92.70
6293;DHT22;3179;54.350;10.102;2022-07-24T14:38:28;26.20;92.70
6293;DHT22;3179;54.350;10.102;2022-07-24T14:40:54;26.20;93.00
6293;DHT22;3179;54.350;10.102;2022-07-24T14:43:21;26.10;92.90
6293;DHT22;3179;54.350;10.102;2022-07-24T14:45:48;26.00;93.00
6293;DHT22;3179;54.350;10.102;2022-07-24T14:48:15;26.00;93.00
6293;DHT22;3179;54.350;10.102;2022-07-24T14:50:43;26.00;93.10
6293;DHT22;3179;54.350;10.102;2022-07-24T14:53:10;25.90;93.10
6293;DHT22;3179;54.350;10.102;2022-07-24T14:55:36;26.00;93.10
6293;DHT22;3179;54.350;10.102;2022-07-24T14:58:03;26.00;93.00
6293;DHT22;3179;54.350;10.102;2022-07-24T15:00:30;25.90;92.90
6293;DHT22;3179;54.350;10.102;2022-07-24T15:02:57;25.90;92.90
6293;DHT22;3179;54.350;10.102;2022-07-24T15:05:24;25.90;92.90
6293;DHT22;3179;54.350;10.102;2022-07-24T15:07:52;25.90;92.90
6293;DHT22;3179;54.350;10.102;2022-07-24T15:10:19;25.90;92.80
6293;DHT22;3179;54.350;10.102;2022-07-24T15:12:46;25.80;92.70
6293;DHT22;3179;54.350;10.102;2022-07-24T15:15:12;25.90;92.90
6293;DHT22;3179;54.350;10.102;2022-07-24T15:17:39;25.80;92.80
6293;DHT22;3179;54.350;10.102;2022-07-24T15:20:06;25.90;92.90
6293;DHT22;3179;54.350;10.102;2022-07-24T15:22:33;25.90;92.80
6293;DHT22;3179;54.350;10.102;2022-07-24T15:25:02;26.00;92.90
6293;DHT22;3179;54.350;10.102;2022-07-24T15:27:28;26.00;92.90
6293;DHT22;3179;54.350;10.102;2022-07-24T15:29:55;26.00;92.90
6293;DHT22;3179;54.350;10.102;2022-07-24T15:32:22;26.00;92.90
6293;DHT22;3179;54.350;10.102;2022-07-24T15:34:49;26.00;92.90
6293;DHT22;3179;54.350;10.102;2022-07-24T15:37:16;26.00;92.80
6293;DHT22;3179;54.350;10.102;2022-07-24T15:39:42;26.00;92.80
6293;DHT22;3179;54.350;10.102;2022-07-24T15:42:10;26.00;92.80
6293;DHT22;3179;54.350;10.102;2022-07-24T15:44:37;26.00;92.80
6293;DHT22;3179;54.350;10.102;2022-07-24T15:47:04;26.00;92.80
6293;DHT22;3179;54.350;10.102;2022-07-24T15:49:31;26.00;92.70
6293;DHT22;3179;54.350;10.102;2022-07-24T15:51:58;26.00;92.60
6293;DHT22;3179;54.350;10.102;2022-07-24T15:54:24;26.00;92.60
6293;DHT22;3179;54.350;10.102;2022-07-24T15:56:52;26.00;92.60